Time;durP1;ratioP1;P1;durP2;ratioP2;P2;SDS_P1;SDS_P2;PMS_P1;PMS_P2;Temp;Humidity;BMP_temperature;BMP_pressure;BME280_temperature;BME280_humidity;BME280_pressure;Samples;Min_cycle;Max_cycle;Signal;HPM_P1;HPM_P2
2022/11/06 00:01:59;;;;;;;5.00;2.30;;;8.80;99.90;;;;;;5113287;28;20624;-49
2022/11/06 00:04:28;;;;;;;10.07;2.60;;;8.70;99.90;;;;;;5113479;28;20636;-48
2022/11/06 00:06:54;;;;;;;9.95;2.50;;;8.70;99.90;;;;;;5113347;28;20203;-48
2022/11/06 00:09:20;;;;;;;5.15;2.85;;;8.70;99.90;;;;;;5113748;28;20196;-49
2022/11/06 00:11:47;;;;;;;4.50;2.20;;;8.80;99.90;;;;;;5113242;28;20616;-48
2022/11/06 00:14:13;;;;;;;6.03;2.50;;;8.70;99.90;;;;;;5113560;28;20177;-47
2022/11/06 00:16:40;;;;;;;8.63;2.30;;;8.70;99.90;;;;;;5113247;28;20317;-49
2022/11/06 00:19:07;;;;;;;8.60;3.28;;;8.70;99.90;;;;;;5113203;28;20259;-48
2022/11/06 00:21:32;;;;;;;6.90;2.60;;;8.80;99.90;;;;;;5113132;28;20204;-48
2022/11/06 00:24:00;;;;;;;9.95;3.22;;;8.70;99.90;;;;;;5113122;28;20157;-48
2022/11/06 00:26:27;;;;;;;5.63;2.35;;;8.60;99.90;;;;;;5113301;28;20526;-49
2022/11/06 00:28:53;;;;;;;6.45;2.28;;;8.60;99.90;;;;;;5113017;28;20161;-48
2022/11/06 00:31:22;;;;;;;6.70;2.53;;;8.70;99.90;;;;;;5113275;28;20246;-49
2022/11/06 00:33:48;;;;;;;4.75;2.72;;;8.60;99.90;;;;;;5112884;28;20165;-54
2022/11/06 00:36:17;;;;;;;6.20;2.50;;;8.70;99.90;;;;;;5112888;28;20542;-53
2022/11/06 00:38:42;;;;;;;10.02;2.15;;;8.70;99.90;;;;;;5112926;28;21043;-52
2022/11/06 00:41:11;;;;;;;6.40;2.25;;;8.70;99.90;;;;;;5112787;28;20663;-53
2022/11/06 00:43:37;;;;;;;6.85;2.25;;;8.60;99.90;;;;;;5111799;28;20260;-53
2022/11/06 00:46:04;;;;;;;4.95;2.30;;;8.70;99.90;;;;;;5112753;28;20215;-53
2022/11/06 00:48:30;;;;;;;8.10;2.00;;;8.60;99.90;;;;;;5112691;28;20173;-53
2022/11/06 00:51:02;;;;;;;5.20;1.98;;;8.60;99.90;;;;;;5112507;28;20302;-54
2022/11/06 00:53:27;;;;;;;7.20;2.00;;;8.60;99.90;;;;;;5112641;28;20211;-53
2022/11/06 00:55:53;;;;;;;6.28;2.60;;;8.60;99.90;;;;;;5112499;28;20215;-53
2022/11/06 00:58:19;;;;;;;6.95;2.38;;;8.60;99.90;;;;;;5112893;28;20643;-52
2022/11/06 01:00:44;;;;;;;3.03;2.03;;;8.60;99.90;;;;;;5112391;28;20682;-54
2022/11/06 01:03:10;;;;;;;4.80;2.47;;;8.60;99.90;;;;;;5112264;28;20204;-54
2022/11/06 01:05:35;;;;;;;3.00;1.70;;;8.60;99.90;;;;;;5094200;28;20171;-51
2022/11/06 01:08:01;;;;;;;7.15;2.60;;;8.60;99.90;;;;;;5112577;28;20524;-53
2022/11/06 01:10:26;;;;;;;4.88;2.58;;;8.60;99.90;;;;;;5112361;28;20161;-52
2022/11/06 01:12:52;;;;;;;4.97;1.85;;;8.60;99.90;;;;;;5112344;28;20187;-52
2022/11/06 01:15:17;;;;;;;2.90;1.83;;;8.60;99.90;;;;;;5112603;28;20172;-53
2022/11/06 01:17:43;;;;;;;4.93;2.08;;;8.60;99.90;;;;;;5112255;28;20172;-51
2022/11/06 01:20:09;;;;;;;4.35;1.90;;;8.60;99.90;;;;;;5112083;28;20283;-53
2022/11/06 01:22:35;;;;;;;6.95;2.30;;;8.60;99.90;;;;;;5112209;28;20172;-53
2022/11/06 01:25:00;;;;;;;2.65;1.98;;;8.60;99.90;;;;;;5112285;28;20255;-52
2022/11/06 01:27:26;;;;;;;6.07;2.15;;;8.60;99.90;;;;;;5112356;28;20172;-53
2022/11/06 01:29:51;;;;;;;5.15;2.03;;;8.60;99.90;;;;;;5112497;28;20168;-53
2022/11/06 01:32:17;;;;;;;6.60;2.22;;;8.50;99.90;;;;;;5112080;28;20168;-52
2022/11/06 01:34:42;;;;;;;6.93;2.00;;;8.60;99.90;;;;;;5112048;28;20153;-53
2022/11/06 01:37:08;;;;;;;9.07;2.50;;;8.60;99.90;;;;;;5112115;28;20175;-54
2022/11/06 01:39:34;;;;;;;5.47;2.10;;;8.60;99.90;;;;;;5111957;28;20168;-51
2022/11/06 01:41:59;;;;;;;7.90;2.80;;;8.60;99.90;;;;;;5111966;28;20648;-52
2022/11/06 01:44:40;;;;;;;4.40;1.55;;;8.60;99.90;;;;;;5112348;28;20176;-52
2022/11/06 01:47:24;;;;;;;6.80;1.88;;;8.60;99.90;;;;;;5093743;28;20534;-51
2022/11/06 01:49:59;;;;;;;5.45;2.20;;;8.60;99.90;;;;;;5112300;28;20639;-50
2022/11/06 01:52:28;;;;;;;2.20;1.40;;;8.50;99.90;;;;;;5111968;28;20163;-48
2022/11/06 01:55:00;;;;;;;6.28;2.08;;;8.50;99.90;;;;;;5114916;28;20662;-48
2022/11/06 01:57:25;;;;;;;6.20;1.90;;;8.50;99.90;;;;;;5116052;28;20161;-48
2022/11/06 01:59:53;;;;;;;8.27;2.30;;;8.50;99.90;;;;;;5116230;28;20286;-49
2022/11/06 02:02:19;;;;;;;6.68;2.00;;;8.50;99.90;;;;;;5116110;28;20212;-49
2022/11/06 02:04:47;;;;;;;4.43;2.13;;;8.40;99.90;;;;;;5115881;28;20176;-48
2022/11/06 02:07:12;;;;;;;4.80;1.92;;;8.40;99.90;;;;;;5116072;28;20255;-48
2022/11/06 02:09:38;;;;;;;3.60;2.00;;;8.40;99.90;;;;;;5115692;28;20263;-48
2022/11/06 02:12:31;;;;;;;4.40;1.60;;;8.40;99.90;;;;;;5115700;28;20512;-48
2022/11/06 02:15:25;;;;;;;9.13;2.13;;;8.40;99.90;;;;;;5115535;28;20157;-48
2022/11/06 02:18:36;;;;;;;13.23;3.15;;;8.40;99.90;;;;;;5115878;28;20164;-48
2022/11/06 02:21:23;;;;;;;4.97;2.05;;;8.40;99.90;;;;;;5115448;28;20207;-47
2022/11/06 02:24:27;;;;;;;8.43;2.05;;;8.40;99.90;;;;;;5115777;28;20612;-48
2022/11/06 02:27:16;;;;;;;7.70;2.35;;;8.40;99.90;;;;;;5073687;28;20211;-47
2022/11/06 02:30:08;;;;;;;3.25;1.98;;;8.40;99.90;;;;;;5115370;28;20213;-47
2022/11/06 02:32:42;;;;;;;6.93;2.03;;;8.40;99.90;;;;;;5097024;28;20749;-47
2022/11/06 02:35:22;;;;;;;6.40;2.05;;;8.40;99.90;;;;;;5115190;28;20650;-48
2022/11/06 02:37:52;;;;;;;3.75;1.70;;;8.40;99.90;;;;;;5115773;28;20172;-47
2022/11/06 02:40:20;;;;;;;7.78;1.75;;;8.40;99.90;;;;;;5115384;28;20211;-49
2022/11/06 02:42:50;;;;;;;4.90;2.15;;;8.30;99.90;;;;;;5115310;28;20524;-48
2022/11/06 02:45:17;;;;;;;5.05;2.13;;;8.40;99.90;;;;;;5114983;28;20163;-48
2022/11/06 02:47:48;;;;;;;3.40;1.63;;;8.40;99.90;;;;;;5114998;28;20165;-48
2022/11/06 02:50:29;;;;;;;2.92;1.90;;;8.30;99.90;;;;;;5115041;28;20171;-49
2022/11/06 02:53:15;;;;;;;4.47;1.55;;;8.30;99.90;;;;;;5114929;28;20168;-49
2022/11/06 02:55:44;;;;;;;5.07;1.70;;;8.30;99.90;;;;;;5114868;28;20156;-47
2022/11/06 02:58:16;;;;;;;8.55;2.25;;;8.30;99.90;;;;;;5114770;28;20187;-48
2022/11/06 03:00:47;;;;;;;6.07;1.70;;;8.30;99.90;;;;;;5114706;28;20204;-48
2022/11/06 03:03:28;;;;;;;3.75;1.70;;;8.30;99.90;;;;;;5114580;28;20201;-52
2022/11/06 03:06:00;;;;;;;6.20;1.55;;;8.30;99.90;;;;;;5113629;28;20180;-47
2022/11/06 03:08:30;;;;;;;7.93;2.20;;;8.20;99.90;;;;;;5114656;28;20248;-48
2022/11/06 03:11:19;;;;;;;6.80;2.13;;;8.30;99.90;;;;;;5114845;28;20185;-47
2022/11/06 03:14:01;;;;;;;6.32;2.28;;;8.30;99.90;;;;;;5114457;28;20169;-49
2022/11/06 03:16:41;;;;;;;3.83;1.85;;;8.30;99.90;;;;;;5114423;28;20188;-49
2022/11/06 03:19:28;;;;;;;2.83;1.80;;;8.20;99.90;;;;;;5114445;28;20172;-48
2022/11/06 03:22:08;;;;;;;7.05;1.92;;;8.20;99.90;;;;;;5114296;28;20264;-47
2022/11/06 03:24:40;;;;;;;6.75;1.80;;;8.20;99.90;;;;;;5114677;28;20234;-48
2022/11/06 03:27:11;;;;;;;5.18;2.20;;;8.20;99.90;;;;;;5114258;28;20164;-48
2022/11/06 03:29:45;;;;;;;9.93;1.80;;;8.20;99.90;;;;;;5114205;28;20165;-52
2022/11/06 03:32:28;;;;;;;7.85;2.55;;;8.20;99.90;;;;;;5114189;28;20511;-54
2022/11/06 03:35:14;;;;;;;5.00;1.92;;;8.20;99.90;;;;;;5114362;28;20175;-53
2022/11/06 03:37:56;;;;;;;4.13;1.67;;;8.10;99.90;;;;;;5114330;28;20176;-53
2022/11/06 03:40:24;;;;;;;4.32;1.90;;;8.20;99.90;;;;;;5113974;28;20196;-53
2022/11/06 03:42:56;;;;;;;3.22;1.60;;;8.30;99.90;;;;;;5114330;28;20167;-53
2022/11/06 03:45:24;;;;;;;6.60;2.00;;;8.30;99.90;;;;;;5095677;28;20164;-50
2022/11/06 03:48:00;;;;;;;7.82;2.60;;;8.30;99.90;;;;;;5114146;28;20195;-53
2022/11/06 03:50:59;;;;;;;5.93;1.80;;;8.30;99.90;;;;;;5113739;28;20165;-52
2022/11/06 03:53:35;;;;;;;3.00;1.80;;;8.40;99.90;;;;;;5043584;28;20647;-52
2022/11/06 03:56:11;;;;;;;3.80;1.50;;;8.40;99.90;;;;;;5095483;28;20259;-53
2022/11/06 03:58:39;;;;;;;9.35;1.95;;;8.40;99.90;;;;;;5113646;28;20633;-53
2022/11/06 04:01:08;;;;;;;3.92;1.58;;;8.40;99.90;;;;;;5113529;28;20212;-52
2022/11/06 04:03:46;;;;;;;5.93;1.83;;;8.40;99.90;;;;;;5095091;28;20585;-53
2022/11/06 04:06:18;;;;;;;5.40;2.42;;;8.40;99.90;;;;;;5113456;28;20260;-53
2022/11/06 04:14:23;;;;;;;5.82;1.90;;;8.50;99.90;;;;;;5113700;28;20255;-55
2022/11/06 04:16:53;;;;;;;7.97;1.98;;;7.60;99.90;;;;;;5113409;28;20192;-54
2022/11/06 04:19:20;;;;;;;3.28;1.83;;;8.50;99.90;;;;;;5113605;28;20157;-53
2022/11/06 04:22:10;;;;;;;8.05;1.70;;;8.50;99.90;;;;;;5113004;28;20212;-53
2022/11/06 04:27:54;;;;;;;7.30;1.73;;;8.50;99.90;;;;;;5113650;28;20175;-51
2022/11/06 04:30:20;;;;;;;9.43;3.00;;;8.50;99.90;;;;;;5113468;28;20192;-54
2022/11/06 04:32:54;;;;;;;7.53;2.38;;;8.40;99.90;;;;;;5113201;28;20168;-51
2022/11/06 04:35:39;;;;;;;3.58;1.73;;;8.50;99.90;;;;;;5112767;28;20168;-51
2022/11/06 04:38:28;;;;;;;5.63;2.15;;;8.40;99.90;;;;;;5112720;28;20217;-52
2022/11/06 04:41:35;;;;;;;7.13;2.00;;;8.40;99.90;;;;;;5112728;28;20287;-52
2022/11/06 04:44:18;;;;;;;8.65;2.15;;;8.30;99.90;;;;;;5112842;28;20168;-51
2022/11/06 04:46:57;;;;;;;5.10;1.83;;;8.30;99.90;;;;;;5112720;28;20187;-52
2022/11/06 04:49:25;;;;;;;5.57;1.63;;;8.30;99.90;;;;;;5112988;28;20508;-52
2022/11/06 04:51:51;;;;;;;5.00;1.80;;;8.30;99.90;;;;;;5112934;28;20165;-52
2022/11/06 04:54:17;;;;;;;5.72;1.90;;;8.30;99.90;;;;;;5113046;28;20161;-52
2022/11/06 04:56:43;;;;;;;5.93;2.05;;;8.30;99.90;;;;;;5112558;28;20164;-52
2022/11/06 04:59:14;;;;;;;4.95;1.40;;;8.30;99.90;;;;;;5112485;28;20165;-49
2022/11/06 05:01:39;;;;;;;3.00;1.63;;;8.30;99.90;;;;;;5112321;28;20211;-54
2022/11/06 05:04:05;;;;;;;4.15;1.67;;;8.30;99.90;;;;;;5112214;28;20209;-53
2022/11/06 05:06:30;;;;;;;3.92;1.80;;;8.30;99.90;;;;;;5112707;28;20172;-52
2022/11/06 05:08:57;;;;;;;7.35;2.10;;;8.30;99.90;;;;;;5094128;28;20173;-52
2022/11/06 05:11:23;;;;;;;7.30;2.20;;;8.40;99.90;;;;;;5094122;28;20200;-54
2022/11/06 05:13:49;;;;;;;5.80;1.80;;;8.30;99.90;;;;;;5094418;28;20199;-52
2022/11/06 05:16:14;;;;;;;6.93;2.28;;;8.40;99.90;;;;;;5112362;28;20221;-52
2022/11/06 05:18:40;;;;;;;4.38;1.70;;;8.40;99.90;;;;;;5112308;28;20169;-53
2022/11/06 05:23:50;;;;;;;4.35;1.75;;;8.40;99.90;;;;;;5112692;28;20587;-52
2022/11/06 05:26:15;;;;;;;3.50;1.63;;;8.50;99.90;;;;;;5112198;28;20169;-52
2022/11/06 05:28:41;;;;;;;7.47;2.20;;;8.50;99.90;;;;;;5115093;28;20167;-53
2022/11/06 05:31:06;;;;;;;4.13;1.63;;;8.40;99.90;;;;;;5118952;28;20635;-51
2022/11/06 05:33:32;;;;;;;9.02;2.03;;;8.40;99.90;;;;;;5118968;28;20655;-51
2022/11/06 05:36:02;;;;;;;3.63;2.08;;;8.40;99.90;;;;;;5118920;28;20541;-52
2022/11/06 05:38:28;;;;;;;8.38;2.53;;;8.50;99.90;;;;;;5119016;28;20188;-52
2022/11/06 05:40:53;;;;;;;5.78;2.08;;;8.40;99.90;;;;;;5118905;28;20239;-52
2022/11/06 05:43:19;;;;;;;6.38;2.47;;;8.40;99.90;;;;;;5119406;28;20168;-52
2022/11/06 05:45:44;;;;;;;3.60;1.90;;;8.40;99.90;;;;;;5118963;28;20168;-52
2022/11/06 05:48:10;;;;;;;10.88;2.20;;;8.40;99.90;;;;;;5118903;28;20164;-51
2022/11/06 05:50:35;;;;;;;9.20;2.33;;;8.40;99.90;;;;;;5118748;28;20169;-47
2022/11/06 05:53:01;;;;;;;11.50;3.25;;;8.40;99.90;;;;;;5118721;28;20165;-47
2022/11/06 05:55:26;;;;;;;8.07;2.63;;;8.40;99.90;;;;;;5118859;28;20169;-47
2022/11/06 05:57:52;;;;;;;8.60;2.00;;;8.40;99.90;;;;;;5118758;28;20161;-48
2022/11/06 06:00:18;;;;;;;8.40;2.85;;;8.40;99.90;;;;;;5118947;28;20204;-48
2022/11/06 06:02:43;;;;;;;11.88;2.85;;;8.40;99.90;;;;;;5118566;28;20356;-47
2022/11/06 06:05:09;;;;;;;6.30;2.90;;;8.40;99.90;;;;;;5118608;28;20210;-47
2022/11/06 06:07:34;;;;;;;5.25;1.75;;;8.40;99.90;;;;;;5118660;28;20168;-47
2022/11/06 06:10:00;;;;;;;6.05;2.38;;;8.40;99.90;;;;;;5118675;28;20161;-48
2022/11/06 06:12:26;;;;;;;7.00;3.00;;;8.40;99.90;;;;;;5118790;28;20173;-47
2022/11/06 06:14:52;;;;;;;6.45;1.75;;;8.40;99.90;;;;;;5118688;28;20160;-47
2022/11/06 06:17:18;;;;;;;7.93;2.10;;;8.40;99.90;;;;;;5118700;28;20653;-48
2022/11/06 06:19:44;;;;;;;10.30;2.38;;;8.30;99.90;;;;;;5118540;28;20168;-48
2022/11/06 06:22:09;;;;;;;12.13;3.85;;;8.30;99.90;;;;;;5100259;28;20173;-48
2022/11/06 06:24:35;;;;;;;6.95;1.98;;;8.20;99.90;;;;;;5118476;28;20701;-47
2022/11/06 06:27:01;;;;;;;7.85;2.40;;;8.20;99.90;;;;;;5118796;28;20181;-48
2022/11/06 06:29:26;;;;;;;5.75;2.10;;;8.20;99.90;;;;;;5118553;28;20169;-50
2022/11/06 06:31:52;;;;;;;13.07;3.47;;;8.20;99.90;;;;;;5118080;28;20160;-53
2022/11/06 06:34:18;;;;;;;15.38;4.05;;;8.10;99.90;;;;;;5118693;28;20256;-53
2022/11/06 06:36:43;;;;;;;6.43;2.85;;;8.00;99.90;;;;;;5118628;28;20175;-52
2022/11/06 06:39:09;;;;;;;13.30;3.70;;;8.10;99.90;;;;;;5118181;28;20161;-53
2022/11/06 06:41:35;;;;;;;10.07;3.78;;;8.00;99.90;;;;;;5115013;28;20215;-52
2022/11/06 06:44:00;;;;;;;7.85;3.05;;;7.90;99.90;;;;;;5114776;28;20686;-52
2022/11/06 06:46:26;;;;;;;19.52;6.32;;;8.00;99.90;;;;;;5114760;28;20165;-52
2022/11/06 06:48:52;;;;;;;13.35;4.43;;;7.90;99.90;;;;;;5115104;28;20161;-48
2022/11/06 06:51:18;;;;;;;8.35;2.78;;;7.90;99.90;;;;;;5115232;28;20530;-53
2022/11/06 06:53:44;;;;;;;14.18;4.72;;;7.90;99.90;;;;;;5114747;28;20176;-53
2022/11/06 06:56:09;;;;;;;12.27;2.75;;;7.90;99.90;;;;;;5114761;28;20526;-54
2022/11/06 06:58:35;;;;;;;11.82;5.63;;;8.00;99.90;;;;;;5115058;28;20194;-53
2022/11/06 07:01:03;;;;;;;11.10;4.50;;;7.90;99.90;;;;;;5114855;28;20550;-53
2022/11/06 07:03:30;;;;;;;15.13;5.13;;;8.00;99.90;;;;;;5114534;28;20695;-53
2022/11/06 07:05:58;;;;;;;8.82;3.58;;;8.00;99.90;;;;;;5114885;28;20183;-52
2022/11/06 07:08:25;;;;;;;23.00;6.63;;;8.00;99.90;;;;;;5114820;28;20426;-52
2022/11/06 07:10:51;;;;;;;21.90;6.90;;;8.10;99.90;;;;;;5115218;28;20180;-52
2022/11/06 07:13:17;;;;;;;16.90;5.47;;;8.10;99.90;;;;;;5115139;28;20165;-54
2022/11/06 07:15:42;;;;;;;21.20;6.65;;;8.10;99.90;;;;;;5114390;28;20172;-53
2022/11/06 07:18:08;;;;;;;14.20;6.07;;;8.10;99.90;;;;;;5114324;28;20164;-53
2022/11/06 07:20:34;;;;;;;9.55;3.08;;;8.30;99.90;;;;;;5114201;28;20261;-51
2022/11/06 07:23:05;;;;;;;18.02;6.20;;;8.30;99.90;;;;;;5114230;28;20168;-52
2022/11/06 07:25:31;;;;;;;10.45;3.67;;;8.40;99.90;;;;;;5114564;28;20202;-51
2022/11/06 07:28:01;;;;;;;32.17;12.40;;;8.50;99.90;;;;;;5114239;28;20233;-51
2022/11/06 07:30:26;;;;;;;11.80;3.78;;;8.50;99.90;;;;;;5114025;28;20641;-51
2022/11/06 07:32:52;;;;;;;45.47;15.82;;;8.60;99.90;;;;;;5114161;28;20198;-49
2022/11/06 07:35:18;;;;;;;15.77;4.38;;;8.80;99.90;;;;;;5114345;28;20247;-51
2022/11/06 07:37:43;;;;;;;25.90;10.15;;;8.90;99.90;;;;;;5113800;28;20201;-51
2022/11/06 07:40:09;;;;;;;30.55;11.60;;;9.00;99.90;;;;;;5113661;28;20219;-52
2022/11/06 07:42:35;;;;;;;37.63;11.90;;;9.10;99.90;;;;;;5095523;28;20173;-51
2022/11/06 07:45:01;;;;;;;26.98;10.80;;;9.20;99.90;;;;;;5113644;28;20169;-51
2022/11/06 07:47:29;;;;;;;74.00;23.23;;;9.40;99.90;;;;;;5095449;28;20172;-52
2022/11/06 07:49:54;;;;;;;20.98;8.20;;;9.50;99.90;;;;;;5113628;28;20216;-52
2022/11/06 07:52:20;;;;;;;13.85;3.70;;;9.60;99.90;;;;;;5113780;28;20173;-50
2022/11/06 07:54:46;;;;;;;12.65;4.65;;;9.80;99.90;;;;;;5113657;28;20191;-51
2022/11/06 07:57:12;;;;;;;13.30;4.25;;;9.90;99.90;;;;;;5113710;28;20181;-50
2022/11/06 07:59:37;;;;;;;10.05;3.03;;;9.90;99.90;;;;;;5113639;28;20165;-51
2022/11/06 08:02:03;;;;;;;17.10;4.68;;;9.90;99.90;;;;;;5113392;28;20566;-50
2022/11/06 08:04:28;;;;;;;10.73;4.30;;;9.80;99.90;;;;;;5113560;28;20514;-51
2022/11/06 08:06:56;;;;;;;12.68;4.32;;;9.70;99.90;;;;;;5113531;28;20172;-49
2022/11/06 08:09:23;;;;;;;12.20;3.72;;;9.80;99.90;;;;;;5113465;28;20168;-49
2022/11/06 08:11:49;;;;;;;11.60;4.40;;;9.80;99.90;;;;;;5113853;28;20221;-47
2022/11/06 08:14:15;;;;;;;12.45;4.95;;;9.80;99.90;;;;;;5113251;28;20633;-49
2022/11/06 08:16:41;;;;;;;12.88;3.83;;;10.00;99.90;;;;;;5113249;28;20243;-51
2022/11/06 08:19:06;;;;;;;37.28;12.10;;;10.10;99.90;;;;;;5113216;28;20293;-50
2022/11/06 08:21:32;;;;;;;47.85;13.02;;;10.20;99.90;;;;;;5113084;28;20249;-52
2022/11/06 08:23:57;;;;;;;9.85;2.47;;;10.40;99.90;;;;;;5113055;28;20188;-48
2022/11/06 08:26:23;;;;;;;12.35;2.97;;;10.60;99.90;;;;;;5113326;28;20230;-49
2022/11/06 08:28:49;;;;;;;9.63;3.03;;;10.60;99.90;;;;;;5113417;28;20161;-49
2022/11/06 08:31:14;;;;;;;12.98;3.63;;;10.80;99.90;;;;;;5112947;28;20161;-47
2022/11/06 08:33:40;;;;;;;4.00;2.20;;;10.80;99.90;;;;;;5113195;28;20251;-49
2022/11/06 08:36:07;;;;;;;10.85;2.50;;;10.90;99.90;;;;;;5113097;28;20191;-48
2022/11/06 08:38:33;;;;;;;7.10;2.40;;;11.10;99.90;;;;;;5112870;28;20182;-48
2022/11/06 08:41:04;;;;;;;5.97;2.25;;;11.20;99.90;;;;;;5112965;28;20239;-51
2022/11/06 08:43:29;;;;;;;4.80;2.13;;;11.30;99.90;;;;;;5113022;28;20165;-52
2022/11/06 08:45:55;;;;;;;5.00;2.13;;;11.30;99.90;;;;;;5112782;28;20171;-52
2022/11/06 08:48:21;;;;;;;4.63;1.67;;;11.50;99.90;;;;;;5113114;28;20168;-50
2022/11/06 08:50:46;;;;;;;13.52;3.47;;;11.50;99.90;;;;;;5112969;28;20217;-50
2022/11/06 08:53:12;;;;;;;5.10;2.00;;;11.60;99.90;;;;;;5112585;28;20249;-52
2022/11/06 08:55:38;;;;;;;7.88;2.83;;;11.50;99.90;;;;;;5112708;28;20172;-49
2022/11/06 08:58:05;;;;;;;10.00;2.55;;;11.70;99.90;;;;;;5112519;28;20164;-51
2022/11/06 09:00:30;;;;;;;4.03;2.25;;;11.60;99.90;;;;;;5112597;28;20196;-49
2022/11/06 09:03:01;;;;;;;5.10;2.80;;;11.80;99.90;;;;;;5111624;28;20702;-48
2022/11/06 09:05:28;;;;;;;9.02;3.03;;;12.00;99.90;;;;;;5112239;28;20165;-51
2022/11/06 09:07:55;;;;;;;6.47;2.30;;;12.00;99.90;;;;;;5111379;28;20160;-51
2022/11/06 09:10:20;;;;;;;4.28;2.28;;;12.00;99.90;;;;;;5111958;28;20695;-50
2022/11/06 09:12:46;;;;;;;9.18;2.60;;;12.10;99.90;;;;;;5111162;28;20264;-52
2022/11/06 09:15:11;;;;;;;9.38;2.53;;;12.00;99.90;;;;;;5111813;28;20172;-50
2022/11/06 09:17:48;;;;;;;5.50;2.17;;;12.00;99.90;;;;;;5111007;28;20628;-52
2022/11/06 09:20:15;;;;;;;4.32;2.38;;;12.00;99.90;;;;;;5112161;28;20232;-51
2022/11/06 09:22:41;;;;;;;6.05;2.20;;;12.00;99.90;;;;;;5112249;28;20192;-48
2022/11/06 09:25:07;;;;;;;4.05;1.98;;;11.90;99.90;;;;;;5111809;28;20616;-50
2022/11/06 09:27:40;;;;;;;5.15;2.42;;;11.80;99.90;;;;;;5112251;28;20173;-52
2022/11/06 09:30:07;;;;;;;4.68;2.20;;;11.70;99.90;;;;;;5112063;28;20156;-53
2022/11/06 09:32:32;;;;;;;5.97;2.60;;;11.50;99.90;;;;;;5112254;28;20169;-52
2022/11/06 09:34:59;;;;;;;5.95;2.25;;;11.40;99.90;;;;;;5112094;28;20571;-52
2022/11/06 09:37:24;;;;;;;6.03;1.95;;;11.40;99.90;;;;;;5111918;28;20169;-51
2022/11/06 09:39:50;;;;;;;8.40;1.90;;;11.40;99.90;;;;;;5112261;28;20171;-52
2022/11/06 09:42:36;;;;;;;5.43;2.30;;;11.40;99.90;;;;;;5111848;28;20251;-48
2022/11/06 09:45:13;;;;;;;9.95;2.47;;;11.30;99.90;;;;;;5112419;28;20160;-49
2022/11/06 09:47:44;;;;;;;6.53;2.42;;;11.40;99.90;;;;;;5104119;28;20263;-48
2022/11/06 09:50:16;;;;;;;3.95;2.15;;;11.60;99.90;;;;;;5112396;28;20168;-48
2022/11/06 09:52:49;;;;;;;5.82;2.00;;;11.90;99.90;;;;;;5111849;28;20168;-51
2022/11/06 09:55:19;;;;;;;9.23;1.98;;;11.90;99.90;;;;;;5111814;28;20160;-51
2022/11/06 09:57:50;;;;;;;4.63;2.10;;;12.00;99.90;;;;;;5111963;28;20157;-53
2022/11/06 10:00:17;;;;;;;7.15;1.98;;;12.40;99.90;;;;;;5111975;28;20214;-53
2022/11/06 10:03:04;;;;;;;5.65;2.05;;;12.40;99.90;;;;;;5111644;28;20216;-53
2022/11/06 10:05:32;;;;;;;4.70;1.77;;;12.10;99.90;;;;;;5111867;28;20157;-52
2022/11/06 10:08:21;;;;;;;6.82;1.98;;;12.10;99.90;;;;;;5111693;28;20263;-51
2022/11/06 10:11:09;;;;;;;6.47;1.80;;;12.10;99.90;;;;;;5111870;28;20165;-51
2022/11/06 10:14:22;;;;;;;6.53;1.90;;;12.10;99.90;;;;;;5111276;28;20187;-51
2022/11/06 10:17:10;;;;;;;3.88;1.80;;;11.90;99.90;;;;;;5116030;28;20226;-51
2022/11/06 10:20:04;;;;;;;5.45;2.05;;;12.10;99.90;;;;;;5115322;28;20164;-51
2022/11/06 10:22:39;;;;;;;5.72;1.90;;;12.40;99.90;;;;;;5115277;28;20260;-52
2022/11/06 10:25:22;;;;;;;3.50;1.90;;;12.40;99.90;;;;;;5115499;28;20164;-51
2022/11/06 10:28:01;;;;;;;4.05;1.70;;;12.40;99.90;;;;;;5115753;28;20169;-51
2022/11/06 10:30:36;;;;;;;6.20;1.98;;;12.20;99.90;;;;;;5115138;28;20610;-51
2022/11/06 10:33:40;;;;;;;8.15;2.05;;;12.10;99.90;;;;;;5115208;28;20265;-50
2022/11/06 10:36:22;;;;;;;4.82;2.17;;;12.10;99.90;;;;;;5074021;28;20177;-51
2022/11/06 10:38:49;;;;;;;4.90;1.85;;;12.10;99.90;;;;;;5115594;28;20662;-52
2022/11/06 10:41:23;;;;;;;8.30;2.85;;;11.90;99.90;;;;;;5115081;28;20294;-52
2022/11/06 10:43:53;;;;;;;5.10;1.63;;;12.00;99.90;;;;;;5115421;28;20160;-52
2022/11/06 10:46:58;;;;;;;3.33;1.75;;;11.90;99.90;;;;;;5115747;28;20175;-52
2022/11/06 10:49:51;;;;;;;4.60;1.50;;;11.90;99.90;;;;;;5114375;28;20180;-48
2022/11/06 10:52:50;;;;;;;5.65;1.67;;;12.00;99.90;;;;;;5115316;28;20176;-47
2022/11/06 10:55:47;;;;;;;8.82;2.25;;;12.10;99.90;;;;;;5104239;28;20632;-52
2022/11/06 10:58:20;;;;;;;8.20;1.75;;;12.00;99.90;;;;;;5114485;28;20194;-52
2022/11/06 11:00:45;;;;;;;5.53;2.63;;;12.00;99.90;;;;;;5114535;28;20231;-48
2022/11/06 11:03:29;;;;;;;6.70;2.20;;;12.00;99.90;;;;;;5114645;28;20606;-51
2022/11/06 11:05:54;;;;;;;6.07;1.85;;;12.00;99.90;;;;;;5114600;28;20374;-51
2022/11/06 11:08:39;;;;;;;4.82;2.40;;;12.00;99.90;;;;;;5115217;28;20164;-50
2022/11/06 11:11:20;;;;;;;3.55;1.90;;;11.90;99.90;;;;;;5114825;28;20172;-52
2022/11/06 11:14:00;;;;;;;33.65;18.75;;;11.90;99.90;;;;;;5096178;28;20164;-50
2022/11/06 11:16:27;;;;;;;15.35;8.63;;;11.90;99.90;;;;;;5114456;28;20515;-49
2022/11/06 11:18:53;;;;;;;7.40;2.38;;;11.90;99.90;;;;;;5114376;28;20229;-52
2022/11/06 11:21:18;;;;;;;10.52;2.85;;;11.90;99.90;;;;;;5114685;28;20660;-53
2022/11/06 11:23:45;;;;;;;3.25;2.00;;;11.90;99.90;;;;;;5095396;28;20192;-51
2022/11/06 11:26:23;;;;;;;5.45;1.77;;;12.00;99.90;;;;;;5113171;28;20165;-51
2022/11/06 11:28:54;;;;;;;6.32;2.17;;;12.20;99.90;;;;;;5114796;28;20172;-51
2022/11/06 11:31:28;;;;;;;5.03;1.42;;;12.20;99.90;;;;;;5114528;28;20165;-49
2022/11/06 11:33:56;;;;;;;4.78;1.80;;;12.30;99.90;;;;;;5095684;28;20173;-49
2022/11/06 11:36:22;;;;;;;4.88;2.67;;;12.60;99.90;;;;;;5114042;28;20651;-47
2022/11/06 11:38:48;;;;;;;6.30;1.70;;;12.70;99.90;;;;;;5114537;28;20168;-48
2022/11/06 11:41:22;;;;;;;3.30;1.60;;;12.70;99.90;;;;;;5114246;28;20291;-52
2022/11/06 11:44:09;;;;;;;8.43;3.40;;;12.70;99.90;;;;;;5114050;28;20157;-50
2022/11/06 11:46:48;;;;;;;5.65;3.13;;;12.70;99.90;;;;;;5113922;28;20190;-48
2022/11/06 11:49:26;;;;;;;4.03;2.15;;;12.70;99.90;;;;;;5114580;28;20161;-50
2022/11/06 11:51:52;;;;;;;5.68;3.90;;;12.70;99.90;;;;;;5114218;28;20168;-49
2022/11/06 11:54:22;;;;;;;9.25;3.72;;;12.80;99.90;;;;;;5114131;28;20172;-49
2022/11/06 11:56:50;;;;;;;6.90;3.90;;;12.90;99.90;;;;;;5114198;28;20245;-48
2022/11/06 11:59:22;;;;;;;5.43;3.20;;;12.90;99.90;;;;;;5113865;28;20188;-50
2022/11/06 12:01:48;;;;;;;8.50;4.18;;;12.80;99.90;;;;;;5113761;28;20204;-48
2022/11/06 12:04:17;;;;;;;6.75;3.50;;;12.80;99.90;;;;;;5112947;28;20583;-49
2022/11/06 12:06:55;;;;;;;7.00;3.15;;;12.70;99.90;;;;;;5113431;28;20228;-48
2022/11/06 12:09:21;;;;;;;6.95;3.50;;;12.50;99.90;;;;;;5113505;28;20224;-47
2022/11/06 12:11:47;;;;;;;8.18;3.47;;;12.40;99.90;;;;;;5113691;28;20160;-48
2022/11/06 12:14:20;;;;;;;7.25;3.22;;;12.40;99.90;;;;;;5113320;28;20688;-48
2022/11/06 12:16:49;;;;;;;8.18;4.07;;;12.20;99.90;;;;;;5113352;28;20161;-47
2022/11/06 12:19:16;;;;;;;6.72;4.50;;;12.20;99.90;;;;;;5112942;28;20636;-47
2022/11/06 12:21:44;;;;;;;7.00;3.10;;;12.20;99.90;;;;;;5112928;28;20209;-48
2022/11/06 12:24:23;;;;;;;7.63;3.67;;;12.20;99.90;;;;;;5113108;28;20183;-47
2022/11/06 12:26:57;;;;;;;7.65;4.03;;;12.30;99.90;;;;;;5113125;28;20175;-48
2022/11/06 12:29:31;;;;;;;7.70;3.78;;;12.30;99.90;;;;;;5113000;28;20165;-49
2022/11/06 12:32:37;;;;;;;6.63;4.47;;;12.40;99.90;;;;;;5113079;28;20179;-48
2022/11/06 12:35:13;;;;;;;8.07;3.45;;;12.30;99.90;;;;;;5112058;28;20165;-46
2022/11/06 12:38:04;;;;;;;6.70;3.08;;;12.30;99.90;;;;;;5112312;28;20473;-48
2022/11/06 12:40:35;;;;;;;6.72;3.50;;;12.40;99.90;;;;;;5112735;28;20212;-48
2022/11/06 12:43:38;;;;;;;6.90;3.33;;;12.50;99.90;;;;;;5112229;28;20165;-50
2022/11/06 12:46:32;;;;;;;7.93;3.58;;;12.60;99.90;;;;;;5112446;28;20196;-50
2022/11/06 12:49:08;;;;;;;4.07;2.58;;;12.70;99.90;;;;;;5112216;28;20161;-50
2022/11/06 12:51:54;;;;;;;7.15;2.70;;;12.80;99.90;;;;;;5112470;28;20560;-50
2022/11/06 12:54:50;;;;;;;10.55;4.95;;;12.80;99.90;;;;;;5112717;28;20168;-51
2022/11/06 12:57:50;;;;;;;5.75;2.95;;;12.80;99.90;;;;;;5112667;28;20640;-49
2022/11/06 13:00:20;;;;;;;6.18;2.45;;;12.80;99.90;;;;;;5112568;28;20667;-46
2022/11/06 13:03:23;;;;;;;5.57;2.70;;;12.70;99.90;;;;;;5112153;28;20640;-47
2022/11/06 13:06:06;;;;;;;7.63;4.60;;;12.70;99.90;;;;;;5112628;28;20251;-46
2022/11/06 13:08:53;;;;;;;7.55;3.60;;;12.70;99.90;;;;;;5111667;28;20160;-47
2022/11/06 13:11:28;;;;;;;9.43;2.20;;;12.60;99.90;;;;;;5111882;28;20591;-46
2022/11/06 13:14:24;;;;;;;6.20;2.92;;;12.60;99.90;;;;;;5111749;28;20496;-51
2022/11/06 13:17:01;;;;;;;7.75;3.08;;;12.60;99.90;;;;;;5097039;28;20196;-52
2022/11/06 13:19:57;;;;;;;2.22;1.25;;;12.70;99.90;;;;;;5111875;28;20160;-49
2022/11/06 13:22:27;;;;;;;3.53;1.40;;;12.60;99.90;;;;;;5112196;28;20183;-48
2022/11/06 13:24:58;;;;;;;6.88;1.67;;;12.60;99.90;;;;;;5112214;28;20171;-50
2022/11/06 13:27:38;;;;;;;2.60;1.33;;;12.70;99.90;;;;;;5112199;28;20175;-51